createdAt,value
2022-09-05T08:36:23.307Z,24.90
2022-09-05T08:38:52.112Z,24.90
2022-09-05T08:41:49.353Z,24.90
2022-09-05T08:46:39.748Z,25.00
2022-09-05T08:47:27.395Z,25.10
2022-09-05T08:50:17.823Z,25.20
2022-09-05T08:52:57.946Z,25.30
2022-09-05T08:55:39.543Z,25.40
2022-09-05T08:58:35.655Z,25.40
2022-09-05T09:01:14.654Z,25.40
2022-09-05T09:04:06.025Z,25.40
2022-09-05T09:07:36.805Z,25.50
2022-09-05T09:10:04.161Z,25.60
2022-09-05T09:12:57.957Z,25.60
2022-09-05T09:15:35.740Z,25.60
2022-09-05T09:18:13.039Z,25.60
2022-09-05T09:20:52.790Z,25.60
2022-09-05T09:23:44.150Z,25.60
2022-09-05T09:26:17.591Z,25.70
2022-09-05T09:28:52.334Z,25.70
2022-09-05T09:31:44.131Z,25.70
2022-09-05T09:34:39.687Z,25.80
2022-09-05T09:37:51.595Z,25.80
2022-09-05T09:40:52.299Z,25.90
2022-09-05T09:43:39.382Z,26.00
2022-09-05T09:46:20.967Z,26.10
2022-09-05T09:49:22.597Z,26.20
2022-09-05T09:52:22.144Z,26.30
2022-09-05T09:55:39.172Z,26.30
2022-09-05T09:58:38.752Z,26.40
2022-09-05T10:01:35.817Z,26.50
2022-09-05T10:10:34.353Z,26.50
2022-09-05T10:10:45.059Z,26.50
2022-09-05T10:11:35.113Z,26.60
2022-09-05T10:14:47.737Z,26.60
2022-09-05T10:17:42.117Z,26.70
2022-09-05T10:20:56.847Z,26.80
2022-09-05T10:23:50.789Z,26.80
2022-09-05T10:26:41.329Z,26.80
2022-09-05T10:29:37.077Z,26.90
2022-09-05T10:35:10.888Z,26.90
2022-09-05T10:35:13.824Z,27.00
2022-09-05T10:37:56.310Z,26.90
2022-09-05T10:40:26.720Z,27.00
2022-09-05T10:43:01.213Z,27.00
2022-09-05T10:45:39.120Z,27.00
2022-09-05T10:48:14.186Z,27.10
2022-09-05T10:50:47.334Z,27.10
2022-09-05T10:53:42.358Z,27.10
2022-09-05T10:56:14.834Z,27.10
2022-09-05T11:00:19.423Z,27.20
2022-09-05T11:02:28.783Z,27.20
2022-09-05T11:05:08.160Z,27.20
2022-09-05T11:07:43.579Z,27.20
2022-09-05T11:10:20.350Z,27.20
2022-09-05T11:13:02.330Z,27.20
2022-09-05T11:15:36.166Z,27.30
2022-09-05T11:18:11.403Z,27.30
2022-09-05T11:20:50.186Z,27.20
2022-09-05T11:23:22.535Z,27.30
2022-09-05T11:26:00.850Z,27.20
2022-09-05T11:28:57.564Z,27.20
2022-09-05T11:32:04.249Z,27.20
2022-09-05T11:34:58.777Z,27.10
2022-09-05T11:39:59.172Z,27.00
2022-09-05T11:41:48.733Z,26.90
2022-09-05T11:44:27.516Z,26.90
2022-09-05T11:47:37.066Z,26.90
2022-09-05T11:50:53.816Z,26.90
2022-09-05T11:53:59.127Z,26.80
2022-09-05T11:56:57.805Z,26.90
2022-09-05T12:00:33.429Z,26.90
2022-09-05T12:03:59.156Z,26.90
2022-09-05T12:06:57.464Z,26.90
2022-09-05T12:09:50.180Z,26.90
2022-09-05T12:12:39.363Z,26.90
2022-09-05T12:15:34.277Z,26.90
2022-09-05T12:18:24.126Z,26.90
2022-09-05T12:21:03.643Z,26.90
2022-09-05T12:24:28.574Z,27.00
2022-09-05T12:27:40.714Z,27.00
2022-09-05T12:29:46.862Z,27.00
2022-09-05T12:33:17.524Z,27.00
2022-09-05T12:36:12.812Z,27.00
2022-09-05T12:40:54.149Z,27.10
2022-09-05T12:41:40.656Z,27.20
2022-09-05T12:44:44.119Z,27.20
2022-09-05T12:47:20.019Z,27.20
2022-09-05T12:50:03.544Z,27.20
2022-09-05T12:52:46.626Z,27.20
2022-09-05T12:55:26.054Z,27.20
2022-09-05T13:02:59.400Z,27.20
2022-09-05T13:03:05.041Z,27.20
2022-09-05T13:04:15.877Z,27.20
2022-09-05T13:06:45.406Z,27.10
2022-09-05T13:09:22.225Z,27.20
2022-09-05T13:14:56.585Z,27.20
2022-09-05T13:15:14.029Z,27.10
2022-09-05T13:17:51.581Z,27.20
2022-09-05T13:20:34.419Z,27.20
2022-09-05T13:23:14.378Z,27.10
2022-09-05T13:25:50.632Z,27.10
2022-09-05T13:28:20.132Z,27.20
2022-09-05T13:32:48.407Z,27.20
2022-09-05T13:38:06.157Z,27.30
2022-09-05T13:38:12.200Z,27.20
2022-09-05T13:39:41.555Z,27.20
2022-09-05T13:42:18.481Z,27.20
2022-09-05T13:44:48.380Z,27.20
2022-09-05T13:47:40.051Z,27.20
2022-09-05T13:50:22.402Z,27.20
2022-09-05T13:52:56.688Z,27.20
2022-09-05T13:55:42.856Z,27.20
2022-09-05T13:58:17.573Z,27.10
2022-09-05T14:01:08.507Z,27.20
2022-09-05T14:04:11.709Z,27.10
2022-09-05T14:10:13.429Z,27.20
2022-09-05T14:12:49.156Z,27.20
2022-09-05T14:15:33.195Z,27.10
2022-09-05T14:18:20.471Z,27.20
2022-09-05T14:21:14.355Z,27.20
2022-09-05T14:23:56.282Z,27.10
2022-09-05T14:26:33.343Z,27.10
2022-09-05T14:29:21.929Z,27.10
2022-09-05T14:37:34.449Z,27.10
2022-09-05T14:37:50.482Z,27.10
2022-09-05T14:38:15.693Z,27.10
2022-09-05T14:41:17.349Z,27.10
2022-09-05T14:44:28.545Z,27.10
2022-09-05T14:47:35.275Z,27.10
2022-09-05T14:50:30.164Z,27.10
2022-09-05T14:56:36.738Z,27.00
2022-09-05T15:02:42.337Z,27.10
2022-09-05T15:02:53.003Z,27.10
2022-09-05T15:04:44.652Z,27.00
2022-09-05T15:07:19.540Z,27.10
2022-09-05T15:12:20.314Z,27.00
2022-09-05T15:12:51.959Z,27.10
2022-09-05T15:15:28.685Z,27.00
2022-09-05T15:18:10.043Z,27.10
2022-09-05T15:20:40.250Z,27.00
2022-09-05T15:23:16.812Z,27.10
2022-09-05T15:25:48.737Z,27.00
2022-09-05T15:28:32.086Z,27.10
2022-09-05T15:31:04.650Z,27.10
2022-09-05T15:33:35.650Z,27.00
2022-09-05T15:36:05.639Z,27.10
2022-09-05T15:38:55.038Z,27.00
2022-09-05T15:41:25.820Z,27.00
2022-09-05T15:44:02.016Z,27.00
2022-09-05T15:46:49.325Z,27.00
2022-09-05T15:49:33.213Z,27.00
2022-09-05T15:52:07.005Z,26.90
2022-09-05T15:54:39.363Z,27.00
2022-09-05T15:57:17.849Z,27.00
2022-09-05T15:59:52.714Z,27.00
2022-09-05T16:02:26.700Z,26.90
2022-09-05T16:10:28.011Z,26.90
2022-09-05T16:10:38.140Z,26.90
2022-09-05T16:11:05.437Z,26.90
2022-09-05T16:13:53.142Z,26.90
2022-09-05T16:23:19.762Z,26.90
2022-09-05T16:23:23.411Z,26.80
2022-09-05T16:23:29.697Z,26.80
2022-09-05T16:25:10.583Z,26.80
2022-09-05T16:27:47.755Z,26.80
2022-09-05T16:30:23.098Z,26.70
2022-09-05T16:32:55.368Z,26.70
2022-09-05T16:35:25.013Z,26.70
2022-09-05T16:38:04.173Z,26.60
2022-09-05T16:40:36.316Z,26.60
2022-09-05T16:43:10.325Z,26.60
2022-09-05T16:45:47.847Z,26.50
2022-09-05T16:48:36.554Z,26.50
2022-09-05T16:51:15.647Z,26.40
2022-09-05T16:53:58.263Z,26.50
2022-09-05T16:56:34.553Z,26.40
2022-09-05T16:59:08.274Z,26.30
2022-09-05T17:02:06.445Z,26.30
2022-09-05T17:05:05.041Z,26.30
2022-09-05T17:08:03.793Z,26.30
2022-09-05T17:10:42.580Z,26.20
2022-09-05T17:13:16.725Z,26.20
2022-09-05T17:15:52.857Z,26.20
2022-09-05T17:18:26.904Z,26.10
2022-09-05T17:21:00.701Z,26.10
2022-09-05T17:29:20.110Z,26.00
2022-09-05T17:29:28.739Z,26.00
2022-09-05T17:32:47.323Z,25.90
2022-09-05T17:35:43.010Z,25.80
2022-09-05T17:38:43.795Z,25.80
2022-09-05T17:41:43.423Z,25.70
2022-09-05T17:44:19.410Z,25.70
2022-09-05T17:47:00.311Z,25.70
2022-09-05T17:49:45.317Z,25.70
2022-09-05T17:52:24.282Z,25.60
2022-09-05T17:54:57.015Z,25.60
2022-09-05T17:57:41.349Z,25.60
2022-09-05T18:01:01.117Z,25.50
